createdAt,value
2019-01-10T00:05:36.913Z,2.62
2019-01-10T00:11:31.901Z,3.07
2019-01-10T00:17:26.842Z,2.78
2019-01-10T00:23:21.879Z,2.87
2019-01-10T00:29:16.867Z,2.63
2019-01-10T00:35:11.862Z,2.47
2019-01-10T00:41:06.937Z,2.37
2019-01-10T00:47:01.882Z,2.47
2019-01-10T00:52:56.857Z,2.37
2019-01-10T00:58:51.872Z,2.39
2019-01-10T01:04:46.876Z,2.52
2019-01-10T01:10:41.879Z,2.44
2019-01-10T01:16:36.889Z,2.57
2019-01-10T01:22:31.944Z,2.52
2019-01-10T01:28:26.906Z,2.48
2019-01-10T01:34:21.881Z,2.69
2019-01-10T01:40:16.903Z,2.86
2019-01-10T01:46:11.907Z,2.94
2019-01-10T01:52:06.918Z,4.08
2019-01-10T01:58:01.909Z,3.39
2019-01-10T02:03:56.917Z,3.64
2019-01-10T02:09:51.917Z,3.2
2019-01-10T02:15:46.902Z,3.71
2019-01-10T02:21:41.983Z,3.62
2019-01-10T02:27:36.937Z,4.39
2019-01-10T02:33:32.005Z,4.22
2019-01-10T02:39:26.965Z,4.47
2019-01-10T02:45:21.955Z,4.02
2019-01-10T02:51:16.983Z,3.84
2019-01-10T02:57:11.944Z,4.2
2019-01-10T03:03:06.995Z,4.29
2019-01-10T03:09:01.969Z,4.07
2019-01-10T03:14:57.103Z,4.31
2019-01-10T03:20:52.655Z,3.85
2019-01-10T03:26:46.978Z,3.99
2019-01-10T03:32:41.967Z,4.03
2019-01-10T03:38:36.969Z,4.34
2019-01-10T03:44:34.151Z,5.02
2019-01-10T03:50:26.984Z,3.85
2019-01-10T03:56:21.977Z,4.19
2019-01-10T04:02:16.976Z,4.82
2019-01-10T04:08:11.995Z,4.22
2019-01-10T04:14:06.979Z,3.81
2019-01-10T04:20:01.987Z,3.88
2019-01-10T04:25:57.006Z,3.36
2019-01-10T04:31:51.992Z,3.92
2019-01-10T04:37:47.029Z,3.6
2019-01-10T04:43:42.005Z,3.4
2019-01-10T04:49:37.004Z,4.33
2019-01-10T04:55:32.003Z,4
2019-01-10T05:01:27.027Z,3.67
2019-01-10T05:07:22.052Z,3.47
2019-01-10T05:13:17.042Z,3.8
2019-01-10T05:19:12.008Z,3.71
2019-01-10T05:25:06.998Z,3.97
2019-01-10T05:31:02.054Z,3.82
2019-01-10T05:36:57.026Z,4.34
2019-01-10T05:42:52.031Z,4.13
2019-01-10T05:48:47.452Z,3.88
2019-01-10T05:54:42.136Z,3.61
2019-01-10T06:00:37.061Z,3.9
2019-01-10T06:06:32.048Z,4.03
2019-01-10T06:12:27.014Z,3.92
2019-01-10T06:18:22.077Z,4.29
2019-01-10T06:24:17.029Z,3.96
2019-01-10T06:30:12.025Z,3.59
2019-01-10T06:36:07.144Z,3.96
2019-01-10T06:42:02.050Z,3.94
2019-01-10T06:47:57.065Z,3.64
2019-01-10T06:53:52.178Z,4.1
2019-01-10T06:59:47.062Z,3.35
2019-01-10T07:05:42.107Z,4.13
2019-01-10T07:11:37.148Z,6.69
2019-01-10T07:17:32.104Z,5.37
2019-01-10T07:23:27.079Z,4.77
2019-01-10T07:29:22.067Z,3.7
2019-01-10T07:35:17.090Z,4.24
2019-01-10T07:41:12.100Z,4.32
2019-01-10T07:47:08.253Z,3.59
2019-01-10T07:53:02.097Z,3.46
2019-01-10T07:58:57.079Z,3.4
2019-01-10T08:04:52.080Z,3.6
2019-01-10T08:10:47.164Z,3.83
2019-01-10T08:16:42.096Z,4.12
2019-01-10T08:22:37.091Z,5.29
2019-01-10T08:28:32.111Z,6.75
2019-01-10T08:34:27.099Z,6.47
2019-01-10T08:40:22.115Z,6.27
2019-01-10T08:46:18.867Z,7.38
2019-01-10T08:52:12.102Z,6.28
2019-01-10T08:58:07.141Z,6.63
2019-01-10T09:04:02.148Z,14.86
2019-01-10T09:09:57.168Z,16.04
2019-01-10T09:15:52.142Z,14.43
2019-01-10T09:21:47.156Z,14.59
2019-01-10T09:27:42.141Z,15.65
2019-01-10T09:33:39.543Z,23.19
2019-01-10T09:39:32.140Z,25.55
2019-01-10T09:45:27.154Z,27.44
2019-01-10T09:51:22.208Z,25.63
2019-01-10T09:57:17.139Z,23.26
2019-01-10T10:03:12.152Z,21.04
2019-01-10T10:09:07.159Z,20.31
2019-01-10T10:15:02.162Z,21.81
2019-01-10T10:20:57.165Z,20.01
2019-01-10T10:26:52.246Z,26.54
2019-01-10T10:32:47.150Z,13.16
2019-01-10T10:38:42.170Z,15.46
2019-01-10T10:44:37.175Z,2.89
2019-01-10T10:50:32.167Z,3.95
2019-01-10T10:56:27.173Z,9.32
2019-01-10T11:02:22.203Z,2.42
2019-01-10T11:08:17.175Z,2.29
2019-01-10T11:14:12.211Z,2.57
2019-01-10T11:20:07.225Z,2.87
2019-01-10T11:26:02.216Z,2.41
2019-01-10T11:31:57.207Z,2.17
2019-01-10T11:37:52.190Z,2.5
2019-01-10T11:43:47.239Z,2.16
2019-01-10T11:49:42.189Z,2.6
2019-01-10T11:55:37.206Z,2.26
2019-01-10T12:01:32.192Z,1.94
2019-01-10T12:07:27.210Z,2.26
2019-01-10T12:13:22.261Z,1.97
2019-01-10T12:19:17.248Z,1.83
2019-01-10T12:25:12.225Z,1.58
2019-01-10T12:31:07.219Z,1.6
2019-01-10T12:37:02.231Z,1.55
2019-01-10T12:42:57.241Z,1.44
2019-01-10T12:48:52.249Z,1.35
2019-01-10T12:54:47.247Z,2.04
2019-01-10T13:00:42.243Z,1.21
2019-01-10T13:06:37.247Z,1.19
2019-01-10T13:12:32.260Z,1.22
2019-01-10T13:18:27.282Z,1.2
2019-01-10T13:24:22.295Z,1.2
2019-01-10T13:30:17.256Z,1.11
2019-01-10T13:36:12.285Z,0.99
2019-01-10T13:42:07.430Z,1.18
2019-01-10T13:48:02.281Z,1.02
2019-01-10T13:53:57.277Z,0.95
2019-01-10T13:59:52.276Z,0.92
2019-01-10T14:05:47.300Z,1.09
2019-01-10T14:11:42.278Z,1.14
2019-01-10T14:17:37.286Z,1.15
2019-01-10T14:23:32.276Z,1.17
2019-01-10T14:29:27.305Z,1.13
2019-01-10T14:35:22.291Z,0.99
2019-01-10T14:41:17.278Z,0.99
2019-01-10T14:47:12.302Z,1.1
2019-01-10T14:53:07.291Z,0.95
2019-01-10T14:59:02.314Z,1.08
2019-01-10T15:04:59.573Z,1.09
2019-01-10T15:10:52.343Z,0.92
2019-01-10T15:16:47.336Z,1.06
2019-01-10T15:22:42.475Z,1.07
2019-01-10T15:28:37.324Z,1.02
2019-01-10T15:34:32.331Z,0.98
2019-01-10T15:40:27.329Z,1.03
2019-01-10T15:46:22.331Z,1.17
2019-01-10T15:52:17.326Z,1.09
2019-01-10T15:58:12.393Z,1.01
2019-01-10T16:04:07.640Z,1.07
2019-01-10T16:10:02.343Z,1.33
2019-01-10T16:15:57.386Z,1.57
2019-01-10T16:21:52.345Z,1.34
2019-01-10T16:27:47.372Z,1.23
2019-01-10T16:33:42.373Z,1.3
2019-01-10T16:39:37.365Z,1.63
2019-01-10T16:45:32.390Z,1.42
2019-01-10T16:51:27.367Z,1.34
2019-01-10T16:57:22.384Z,1.39
2019-01-10T17:03:17.362Z,2.44
2019-01-10T17:09:17.547Z,1.73
2019-01-10T17:15:07.408Z,1.65
2019-01-10T17:21:02.404Z,1.73
2019-01-10T17:26:57.390Z,1.91
2019-01-10T17:32:52.383Z,1.63
2019-01-10T17:38:47.393Z,1.79
2019-01-10T17:44:42.399Z,1.73
2019-01-10T17:50:37.403Z,1.6
2019-01-10T17:56:32.701Z,1.58
2019-01-10T18:02:27.944Z,2.13
2019-01-10T18:08:22.406Z,2.08
2019-01-10T18:14:17.400Z,1.71
2019-01-10T18:20:12.417Z,1.77
2019-01-10T18:26:07.446Z,1.64
2019-01-10T18:32:02.416Z,2
2019-01-10T18:37:57.437Z,1.65
2019-01-10T18:43:52.458Z,3.94
2019-01-10T18:49:47.436Z,1.97
2019-01-10T18:55:42.410Z,1.78
2019-01-10T19:01:37.467Z,1.97
2019-01-10T19:07:32.465Z,1.82
2019-01-10T19:13:27.457Z,1.39
2019-01-10T19:19:22.469Z,1.26
2019-01-10T19:25:17.470Z,1.43
2019-01-10T19:31:12.461Z,1.46
2019-01-10T19:37:07.446Z,3.49
2019-01-10T19:43:02.467Z,2.29
2019-01-10T19:48:57.480Z,2.26
2019-01-10T19:54:52.480Z,1.88
2019-01-10T20:00:47.503Z,2.21
2019-01-10T20:06:42.510Z,1.94
2019-01-10T20:12:37.506Z,1.76
2019-01-10T20:18:32.541Z,2.16
2019-01-10T20:24:27.476Z,1.73
2019-01-10T20:30:22.508Z,2.02
2019-01-10T20:36:17.488Z,1.64
2019-01-10T20:42:12.509Z,1.96
2019-01-10T20:48:07.480Z,1.95
2019-01-10T20:54:02.532Z,4.6
2019-01-10T20:59:57.524Z,2.64
2019-01-10T21:05:52.533Z,1.85
2019-01-10T21:11:47.511Z,2.46
2019-01-10T21:17:42.517Z,1.98
2019-01-10T21:23:37.508Z,2.17
2019-01-10T21:29:32.510Z,1.55
2019-01-10T21:35:27.507Z,1.55
2019-01-10T21:41:22.513Z,1.57
2019-01-10T21:47:17.511Z,1.6
2019-01-10T21:53:12.583Z,1.68
2019-01-10T21:59:07.601Z,1.51
2019-01-10T22:05:02.517Z,2.62
2019-01-10T22:10:57.525Z,1.87
2019-01-10T22:16:52.602Z,1.92
2019-01-10T22:22:47.564Z,2.49
2019-01-10T22:28:42.550Z,2.62
2019-01-10T22:34:37.556Z,3.48
2019-01-10T22:40:32.564Z,1.93
2019-01-10T22:46:27.548Z,2.1
2019-01-10T22:52:22.579Z,2.2
2019-01-10T22:58:17.578Z,2.36
2019-01-10T23:04:12.598Z,1.65
2019-01-10T23:10:07.551Z,2.58
2019-01-10T23:16:02.562Z,1.9
2019-01-10T23:21:57.583Z,2.1
2019-01-10T23:27:52.607Z,1.91
2019-01-10T23:33:47.557Z,1.78
2019-01-10T23:39:42.629Z,2.65
2019-01-10T23:45:37.556Z,2.69
2019-01-10T23:51:32.600Z,2.97
2019-01-10T23:57:27.599Z,2.42
